Ofertas de vuelos a Natal

Encontranos en
En el mes de
SalidaRegresoDíasConexionesDisp.
Mar 25/02/20202020-02-25Mie 04/03/20202020-03-048ConexionesVer disponibilidad>02https://an.despegar.com/ad/1040?q=shop%2Fflights%2Fresults%2Froundtrip%2FBUE%2FNAT%2F2020-02-25%2F2020-03-04%2F1%2F0%2F0
Sab 29/02/20202020-02-29Dom 08/03/20202020-03-088ConexionesVer disponibilidad>02https://an.despegar.com/ad/1040?q=shop%2Fflights%2Fresults%2Froundtrip%2FBUE%2FNAT%2F2020-02-29%2F2020-03-08%2F1%2F0%2F0
Lun 02/03/20202020-03-02Vie 13/03/20202020-03-1311ConexionesVer disponibilidad>03https://an.despegar.com/ad/1040?q=shop%2Fflights%2Fresults%2Froundtrip%2FBUE%2FNAT%2F2020-03-02%2F2020-03-13%2F1%2F0%2F0
Lun 02/03/20202020-03-02Mie 11/03/20202020-03-119ConexionesVer disponibilidad>03https://an.despegar.com/ad/1040?q=shop%2Fflights%2Fresults%2Froundtrip%2FBUE%2FNAT%2F2020-03-02%2F2020-03-11%2F1%2F0%2F0
Lun 02/03/20202020-03-02Lun 09/03/20202020-03-097ConexionesVer disponibilidad>03https://an.despegar.com/ad/1040?q=shop%2Fflights%2Fresults%2Froundtrip%2FBUE%2FNAT%2F2020-03-02%2F2020-03-09%2F1%2F0%2F0
Lun 09/03/20202020-03-09Dom 22/03/20202020-03-2213ConexionesVer disponibilidad>03https://an.despegar.com/ad/1040?q=shop%2Fflights%2Fresults%2Froundtrip%2FBUE%2FNAT%2F2020-03-09%2F2020-03-22%2F1%2F0%2F0
Lun 16/03/20202020-03-16Mie 25/03/20202020-03-259ConexionesVer disponibilidad>03https://an.despegar.com/ad/1040?q=shop%2Fflights%2Fresults%2Froundtrip%2FBUE%2FNAT%2F2020-03-16%2F2020-03-25%2F1%2F0%2F0
Lun 16/03/20202020-03-16Lun 30/03/20202020-03-3014ConexionesVer disponibilidad>03https://an.despegar.com/ad/1040?q=shop%2Fflights%2Fresults%2Froundtrip%2FBUE%2FNAT%2F2020-03-16%2F2020-03-30%2F1%2F0%2F0
Lun 16/03/20202020-03-16Dom 29/03/20202020-03-2913ConexionesVer disponibilidad>03https://an.despegar.com/ad/1040?q=shop%2Fflights%2Fresults%2Froundtrip%2FBUE%2FNAT%2F2020-03-16%2F2020-03-29%2F1%2F0%2F0
Lun 16/03/20202020-03-16Lun 23/03/20202020-03-237ConexionesVer disponibilidad>03https://an.despegar.com/ad/1040?q=shop%2Fflights%2Fresults%2Froundtrip%2FBUE%2FNAT%2F2020-03-16%2F2020-03-23%2F1%2F0%2F0
Lun 16/03/20202020-03-16Dom 22/03/20202020-03-226ConexionesVer disponibilidad>03https://an.despegar.com/ad/1040?q=shop%2Fflights%2Fresults%2Froundtrip%2FBUE%2FNAT%2F2020-03-16%2F2020-03-22%2F1%2F0%2F0
Jue 19/03/20202020-03-19Dom 29/03/20202020-03-2910ConexionesVer disponibilidad>03https://an.despegar.com/ad/1040?q=shop%2Fflights%2Fresults%2Froundtrip%2FBUE%2FNAT%2F2020-03-19%2F2020-03-29%2F1%2F0%2F0
Lun 23/03/20202020-03-23Lun 30/03/20202020-03-307ConexionesVer disponibilidad>03https://an.despegar.com/ad/1040?q=shop%2Fflights%2Fresults%2Froundtrip%2FBUE%2FNAT%2F2020-03-23%2F2020-03-30%2F1%2F0%2F0
Lun 23/03/20202020-03-23Vie 10/04/20202020-04-1018ConexionesVer disponibilidad>03https://an.despegar.com/ad/1040?q=shop%2Fflights%2Fresults%2Froundtrip%2FBUE%2FNAT%2F2020-03-23%2F2020-04-10%2F1%2F0%2F0
Lun 23/03/20202020-03-23Mie 01/04/20202020-04-019ConexionesVer disponibilidad>03https://an.despegar.com/ad/1040?q=shop%2Fflights%2Fresults%2Froundtrip%2FBUE%2FNAT%2F2020-03-23%2F2020-04-01%2F1%2F0%2F0
Mar 24/03/20202020-03-24Mie 01/04/20202020-04-018ConexionesVer disponibilidad>03https://an.despegar.com/ad/1040?q=shop%2Fflights%2Fresults%2Froundtrip%2FBUE%2FNAT%2F2020-03-24%2F2020-04-01%2F1%2F0%2F0
Jue 26/03/20202020-03-26Lun 06/04/20202020-04-0611ConexionesVer disponibilidad>03https://an.despegar.com/ad/1040?q=shop%2Fflights%2Fresults%2Froundtrip%2FBUE%2FNAT%2F2020-03-26%2F2020-04-06%2F1%2F0%2F0
Lun 30/03/20202020-03-30Lun 06/04/20202020-04-067ConexionesVer disponibilidad>03https://an.despegar.com/ad/1040?q=shop%2Fflights%2Fresults%2Froundtrip%2FBUE%2FNAT%2F2020-03-30%2F2020-04-06%2F1%2F0%2F0
Lun 06/04/20202020-04-06Vie 17/04/20202020-04-1711ConexionesVer disponibilidad>04https://an.despegar.com/ad/1040?q=shop%2Fflights%2Fresults%2Froundtrip%2FBUE%2FNAT%2F2020-04-06%2F2020-04-17%2F1%2F0%2F0
Mar 07/04/20202020-04-07Vie 17/04/20202020-04-1710ConexionesVer disponibilidad>04https://an.despegar.com/ad/1040?q=shop%2Fflights%2Fresults%2Froundtrip%2FBUE%2FNAT%2F2020-04-07%2F2020-04-17%2F1%2F0%2F0
Jue 09/04/20202020-04-09Dom 19/04/20202020-04-1910ConexionesVer disponibilidad>04https://an.despegar.com/ad/1040?q=shop%2Fflights%2Fresults%2Froundtrip%2FBUE%2FNAT%2F2020-04-09%2F2020-04-19%2F1%2F0%2F0
Sab 11/04/20202020-04-11Dom 19/04/20202020-04-198ConexionesVer disponibilidad>04https://an.despegar.com/ad/1040?q=shop%2Fflights%2Fresults%2Froundtrip%2FBUE%2FNAT%2F2020-04-11%2F2020-04-19%2F1%2F0%2F0
Lun 13/04/20202020-04-13Lun 20/04/20202020-04-207ConexionesVer disponibilidad>04https://an.despegar.com/ad/1040?q=shop%2Fflights%2Fresults%2Froundtrip%2FBUE%2FNAT%2F2020-04-13%2F2020-04-20%2F1%2F0%2F0

Información general sobre Natal

Natal, que en español significa Navidad, es una ciudad brasileña localizada en el estado de Rio Grande do Norte. Atravesada por el río Potengi, la capital nordestina cuenta con playas, dunas y diferentes atracciones históricas. Anualmente recibe a dos millones de turistas y es la puerta de entrada hacia otros importantes destinos del estado.

Pasajes Aéreos y Vuelos Baratos a Natal

Descargá gratis nuestra nueva app para Android y iOS.
Suscribite a las notificaciones de Chrome y Safari.
Seguinos en Facebook, Twitter e Instagram
Suscribite a nuestro newsletter aquí.